createdAt,value
2022-12-08T00:01:14.133Z,0.50
2022-12-08T00:03:41.626Z,0.57
2022-12-08T00:06:47.964Z,0.70
2022-12-08T00:09:38.681Z,0.80
2022-12-08T00:12:17.739Z,0.63
2022-12-08T00:14:46.937Z,1.00
2022-12-08T00:17:16.528Z,0.80
2022-12-08T00:19:44.305Z,0.80
2022-12-08T00:22:12.853Z,0.90
2022-12-08T00:24:41.299Z,0.93
2022-12-08T00:27:09.821Z,1.10
2022-12-08T00:29:37.088Z,0.80
2022-12-08T00:32:05.251Z,1.00
2022-12-08T00:34:33.114Z,1.23
2022-12-08T00:37:00.174Z,1.70
2022-12-08T00:39:27.204Z,1.10
2022-12-08T00:42:12.417Z,1.47
2022-12-08T00:44:40.845Z,1.60
2022-12-08T00:47:07.853Z,1.37
2022-12-08T00:49:34.814Z,1.93
2022-12-08T00:52:01.978Z,1.60
2022-12-08T00:54:29.113Z,1.53
2022-12-08T00:56:56.129Z,1.03
2022-12-08T00:59:23.175Z,1.70
2022-12-08T01:01:50.259Z,0.90
2022-12-08T01:04:19.077Z,0.93
2022-12-08T01:06:46.705Z,1.00
2022-12-08T01:09:15.925Z,1.27
2022-12-08T01:11:44.607Z,1.20
2022-12-08T01:14:12.538Z,1.03
2022-12-08T01:16:41.611Z,1.53
2022-12-08T01:19:12.218Z,1.27
2022-12-08T01:21:40.026Z,1.30
2022-12-08T01:24:07.636Z,1.73
2022-12-08T01:26:34.749Z,1.73
2022-12-08T01:29:01.782Z,1.93
2022-12-08T01:31:28.871Z,1.37
2022-12-08T01:33:56.390Z,1.77
2022-12-08T01:36:26.341Z,1.50
2022-12-08T01:38:54.683Z,1.83
2022-12-08T01:41:24.557Z,1.80
2022-12-08T01:44:11.064Z,1.80
2022-12-08T01:46:40.768Z,2.43
2022-12-08T01:49:20.595Z,2.03
2022-12-08T01:51:51.637Z,2.13
2022-12-08T01:54:19.693Z,2.13
2022-12-08T01:57:08.493Z,1.70
2022-12-08T01:59:39.726Z,2.27
2022-12-08T02:02:07.791Z,1.63
2022-12-08T02:04:34.899Z,2.03
2022-12-08T02:07:07.767Z,2.10
2022-12-08T02:09:36.705Z,2.20
2022-12-08T02:12:04.269Z,2.30
2022-12-08T02:14:31.790Z,3.20
2022-12-08T02:17:04.366Z,2.80
2022-12-08T02:19:49.081Z,2.30
2022-12-08T02:22:36.009Z,2.50
2022-12-08T02:25:07.715Z,2.50
2022-12-08T02:28:01.778Z,2.63
2022-12-08T02:30:37.693Z,2.37
2022-12-08T02:33:10.774Z,3.10
2022-12-08T02:35:59.320Z,2.70
2022-12-08T02:38:35.570Z,3.40
2022-12-08T02:41:17.954Z,2.13
2022-12-08T02:43:59.552Z,2.27
2022-12-08T02:46:35.987Z,3.00
2022-12-08T02:49:04.018Z,2.50
2022-12-08T02:51:31.147Z,2.80
2022-12-08T02:53:58.808Z,2.63
2022-12-08T02:56:58.273Z,2.53
2022-12-08T02:59:40.107Z,2.33
2022-12-08T03:02:18.036Z,2.83
2022-12-08T03:05:10.721Z,3.13
2022-12-08T03:07:40.644Z,2.63
2022-12-08T03:10:24.719Z,2.20
2022-12-08T03:13:23.510Z,2.77
2022-12-08T03:15:52.779Z,2.20
2022-12-08T03:18:25.705Z,3.03
2022-12-08T03:20:52.762Z,3.70
2022-12-08T03:23:22.251Z,2.87
2022-12-08T03:26:04.428Z,2.73
2022-12-08T03:28:32.047Z,2.20
2022-12-08T03:31:02.635Z,2.47
2022-12-08T03:33:35.854Z,2.87
2022-12-08T03:36:06.868Z,2.80
2022-12-08T03:38:42.332Z,2.50
2022-12-08T03:41:18.595Z,2.90
2022-12-08T03:43:50.879Z,2.43
2022-12-08T03:46:19.324Z,3.07
2022-12-08T03:48:46.367Z,2.20
2022-12-08T03:51:13.897Z,2.60
2022-12-08T03:53:41.123Z,2.23
2022-12-08T03:56:43.783Z,2.70
2022-12-08T03:59:11.377Z,2.30
2022-12-08T04:01:38.526Z,3.30
2022-12-08T04:04:05.659Z,2.50
2022-12-08T04:06:32.755Z,2.53
2022-12-08T04:08:59.816Z,2.70
2022-12-08T04:11:26.861Z,2.43
2022-12-08T04:13:53.877Z,3.63
2022-12-08T04:16:23.840Z,2.93
2022-12-08T04:18:51.127Z,2.23
2022-12-08T04:21:18.586Z,2.33
2022-12-08T04:23:46.526Z,2.60
2022-12-08T04:26:14.413Z,2.43
2022-12-08T04:28:41.613Z,2.93
2022-12-08T04:31:09.000Z,2.33
2022-12-08T04:33:36.257Z,2.23
2022-12-08T04:36:05.374Z,2.47
2022-12-08T04:38:33.642Z,2.07
2022-12-08T04:41:00.927Z,2.83
2022-12-08T04:43:27.978Z,2.30
2022-12-08T04:45:55.063Z,2.50
2022-12-08T04:48:22.085Z,2.57
2022-12-08T04:50:49.157Z,1.93
2022-12-08T04:53:16.194Z,2.10
2022-12-08T04:55:46.006Z,2.50
2022-12-08T04:58:17.998Z,2.60
2022-12-08T05:00:45.945Z,2.83
2022-12-08T05:03:13.736Z,2.57
2022-12-08T05:05:42.265Z,2.33
2022-12-08T05:08:10.647Z,2.30
2022-12-08T05:10:38.134Z,2.43
2022-12-08T05:13:05.190Z,2.17
2022-12-08T05:15:32.262Z,2.63
2022-12-08T05:17:59.204Z,2.57
2022-12-08T05:20:26.348Z,2.47
2022-12-08T05:22:54.133Z,2.93
2022-12-08T05:25:21.204Z,2.57
2022-12-08T05:27:48.290Z,2.43
2022-12-08T05:30:15.430Z,1.93
2022-12-08T05:32:42.484Z,2.80
2022-12-08T05:35:09.847Z,2.70
2022-12-08T05:37:37.007Z,3.77
2022-12-08T05:40:04.589Z,2.40
2022-12-08T05:42:31.760Z,2.50
2022-12-08T05:44:58.747Z,2.30
2022-12-08T05:47:26.222Z,2.00
2022-12-08T05:49:53.394Z,2.63
2022-12-08T05:52:20.465Z,2.17
2022-12-08T05:54:47.495Z,2.10
2022-12-08T05:57:14.516Z,3.40
2022-12-08T05:59:41.631Z,1.73
2022-12-08T06:02:08.917Z,2.03
2022-12-08T06:04:36.443Z,2.27
2022-12-08T06:07:03.539Z,2.13
2022-12-08T06:09:30.685Z,1.90
2022-12-08T06:11:57.727Z,2.00
2022-12-08T06:14:24.756Z,1.97
2022-12-08T06:16:51.819Z,2.13
2022-12-08T06:19:18.859Z,2.23
2022-12-08T06:21:45.898Z,1.90
2022-12-08T06:24:12.988Z,2.27
2022-12-08T06:26:41.494Z,2.43
2022-12-08T06:29:08.615Z,2.13
2022-12-08T06:31:35.770Z,2.20
2022-12-08T06:34:02.938Z,2.00
2022-12-08T06:36:30.247Z,2.43
2022-12-08T06:38:57.389Z,2.50
2022-12-08T06:41:24.891Z,2.40
2022-12-08T06:43:51.988Z,2.10
2022-12-08T06:46:20.324Z,3.00
2022-12-08T06:48:47.888Z,2.00
2022-12-08T06:51:17.267Z,3.03
2022-12-08T06:53:45.886Z,2.60
2022-12-08T06:56:14.152Z,2.37
2022-12-08T06:58:41.229Z,2.37
2022-12-08T07:01:11.712Z,2.60
2022-12-08T07:03:39.483Z,2.17
2022-12-08T07:06:07.858Z,2.50
2022-12-08T07:08:35.416Z,2.10
2022-12-08T07:11:10.037Z,3.13
2022-12-08T07:13:37.504Z,2.70
2022-12-08T07:16:12.055Z,3.13
2022-12-08T07:18:39.722Z,3.07
2022-12-08T07:21:09.352Z,4.53
2022-12-08T07:23:36.704Z,4.53
2022-12-08T07:26:05.904Z,4.13
2022-12-08T07:28:34.356Z,4.20
2022-12-08T07:31:01.941Z,4.10
2022-12-08T07:33:29.151Z,3.40
2022-12-08T07:36:00.932Z,4.00
2022-12-08T07:38:29.001Z,3.60
2022-12-08T07:40:56.001Z,4.23
2022-12-08T07:43:23.716Z,4.03
2022-12-08T07:45:51.166Z,3.20
2022-12-08T07:48:18.599Z,4.67
2022-12-08T07:50:46.144Z,4.10
2022-12-08T07:53:13.237Z,3.80
2022-12-08T07:55:41.844Z,3.80
2022-12-08T07:58:09.527Z,3.23
2022-12-08T08:00:36.645Z,18.73
2022-12-08T08:03:04.078Z,52.20
2022-12-08T08:05:31.202Z,35.30
2022-12-08T08:07:58.277Z,36.40
2022-12-08T08:10:25.305Z,30.17
2022-12-08T08:12:52.264Z,27.77
2022-12-08T08:15:21.175Z,26.67
2022-12-08T08:17:53.707Z,24.23
2022-12-08T08:20:21.319Z,21.37
2022-12-08T08:22:49.989Z,23.20
2022-12-08T08:25:18.397Z,20.33
2022-12-08T08:27:46.622Z,19.50
2022-12-08T08:30:19.950Z,18.23
2022-12-08T08:32:48.270Z,16.10
2022-12-08T08:35:15.294Z,13.40
2022-12-08T08:37:47.270Z,13.47
2022-12-08T08:40:16.377Z,14.30
2022-12-08T08:42:43.493Z,12.43
2022-12-08T08:45:10.985Z,11.33
2022-12-08T08:47:37.978Z,10.07
2022-12-08T08:50:06.117Z,9.03
2022-12-08T08:52:33.441Z,9.60
2022-12-08T08:55:00.512Z,8.53
2022-12-08T08:57:27.642Z,8.30
2022-12-08T08:59:54.815Z,7.33
2022-12-08T09:02:22.312Z,7.30
2022-12-08T09:04:49.575Z,7.30
2022-12-08T09:07:17.087Z,6.90
2022-12-08T09:09:44.441Z,5.50
2022-12-08T09:12:12.196Z,5.40
2022-12-08T09:14:39.363Z,5.37
2022-12-08T09:17:07.177Z,5.07
2022-12-08T09:19:34.568Z,5.20
2022-12-08T09:22:01.656Z,5.00
2022-12-08T09:24:28.664Z,4.10
2022-12-08T09:26:55.720Z,4.00
2022-12-08T09:29:22.768Z,3.30
2022-12-08T09:31:49.979Z,3.70
2022-12-08T09:34:17.168Z,3.67
2022-12-08T09:36:44.195Z,3.47
2022-12-08T09:39:11.258Z,2.90
2022-12-08T09:41:52.348Z,3.80
2022-12-08T09:44:59.771Z,4.23
2022-12-08T09:47:40.273Z,4.43
2022-12-08T09:50:18.011Z,4.83
2022-12-08T09:52:59.912Z,4.60
2022-12-08T09:55:53.728Z,4.10
2022-12-08T09:58:41.894Z,3.27
2022-12-08T10:01:11.183Z,3.47
2022-12-08T10:03:38.547Z,3.73
2022-12-08T10:06:41.492Z,4.77
2022-12-08T10:09:48.957Z,3.03
2022-12-08T10:12:31.691Z,3.27
2022-12-08T10:15:26.670Z,3.23
2022-12-08T10:17:54.927Z,4.33
2022-12-08T10:20:35.684Z,4.13
2022-12-08T10:23:14.375Z,3.70
2022-12-08T10:25:46.563Z,4.43
2022-12-08T10:28:13.964Z,5.47
2022-12-08T10:30:41.444Z,5.07
2022-12-08T10:33:20.198Z,4.57
2022-12-08T10:35:48.408Z,5.40
2022-12-08T10:38:19.700Z,5.57
2022-12-08T10:40:48.458Z,5.00
2022-12-08T10:43:20.742Z,4.20
2022-12-08T10:45:48.125Z,5.17
2022-12-08T10:48:31.295Z,4.50
2022-12-08T10:50:59.721Z,4.37
2022-12-08T10:53:26.656Z,4.87
2022-12-08T10:56:07.502Z,4.60
2022-12-08T10:58:43.724Z,4.30
2022-12-08T11:01:10.847Z,4.20
2022-12-08T11:04:02.584Z,3.67
2022-12-08T11:06:29.531Z,3.37
2022-12-08T11:09:17.318Z,4.17
2022-12-08T11:11:57.310Z,3.63
2022-12-08T11:14:30.005Z,3.80
2022-12-08T11:17:07.224Z,3.10
2022-12-08T11:19:39.068Z,3.57
2022-12-08T11:22:30.203Z,3.03
2022-12-08T11:25:03.671Z,3.20
2022-12-08T11:27:33.881Z,3.63
2022-12-08T11:30:02.523Z,4.10
2022-12-08T11:32:30.071Z,2.77
2022-12-08T11:35:06.255Z,3.03
2022-12-08T11:37:40.045Z,3.20
2022-12-08T11:40:28.353Z,4.80
2022-12-08T11:43:19.737Z,3.90
2022-12-08T11:45:50.525Z,3.17
2022-12-08T11:48:24.052Z,3.40
2022-12-08T11:51:08.035Z,3.40
2022-12-08T11:53:51.381Z,3.90
2022-12-08T11:56:33.428Z,2.93
2022-12-08T11:59:10.598Z,3.43
2022-12-08T12:01:42.474Z,3.43
2022-12-08T12:04:54.603Z,3.20
2022-12-08T12:07:58.691Z,3.80
2022-12-08T12:10:57.327Z,3.93
2022-12-08T12:13:36.564Z,4.00
2022-12-08T12:16:19.743Z,3.87
2022-12-08T12:19:09.719Z,3.77
2022-12-08T12:21:41.655Z,3.90
2022-12-08T12:24:34.212Z,2.90
2022-12-08T12:27:25.046Z,4.10
2022-12-08T12:29:59.089Z,4.23
2022-12-08T12:32:40.086Z,2.97
2022-12-08T12:35:34.894Z,3.63
2022-12-08T12:38:36.479Z,3.87
2022-12-08T12:41:05.564Z,3.40
2022-12-08T12:43:35.544Z,3.47
2022-12-08T12:46:24.107Z,3.70
2022-12-08T12:48:52.247Z,3.90
2022-12-08T12:51:40.886Z,4.20
2022-12-08T12:54:28.358Z,4.10
2022-12-08T12:57:05.771Z,4.73
2022-12-08T12:59:55.218Z,3.90
2022-12-08T13:02:32.453Z,4.60
2022-12-08T13:05:09.871Z,3.90
2022-12-08T13:07:45.268Z,4.50
2022-12-08T13:10:40.057Z,4.10
2022-12-08T13:13:12.880Z,3.90
2022-12-08T13:15:47.755Z,4.50
2022-12-08T13:18:42.998Z,4.40
2022-12-08T13:21:09.992Z,4.27
2022-12-08T13:23:36.952Z,4.87
2022-12-08T13:26:25.120Z,3.83
2022-12-08T13:29:01.594Z,4.30
2022-12-08T13:31:57.712Z,4.00
2022-12-08T13:34:45.641Z,5.60
2022-12-08T13:37:13.623Z,3.57
2022-12-08T13:39:40.753Z,5.90
2022-12-08T13:42:32.604Z,4.57
2022-12-08T13:48:26.745Z,5.03
2022-12-08T13:57:05.141Z,6.23
2022-12-08T13:59:34.234Z,6.07
2022-12-08T14:02:25.255Z,4.73
2022-12-08T14:07:42.365Z,5.97
2022-12-08T14:10:35.574Z,5.70
2022-12-08T14:13:05.985Z,5.57
2022-12-08T14:15:37.543Z,5.63
2022-12-08T14:18:06.878Z,5.50
2022-12-08T14:20:52.012Z,5.70
2022-12-08T14:23:22.394Z,4.63
2022-12-08T14:25:49.680Z,4.37
2022-12-08T14:28:17.192Z,4.07
2022-12-08T14:30:44.672Z,6.10
2022-12-08T14:33:17.451Z,4.57
2022-12-08T14:35:54.425Z,5.03
2022-12-08T14:38:23.146Z,4.93
2022-12-08T14:41:01.384Z,4.63
2022-12-08T14:43:31.079Z,4.63
2022-12-08T14:46:02.453Z,4.87
2022-12-08T14:48:36.392Z,5.43
2022-12-08T14:51:18.639Z,4.87
2022-12-08T14:53:48.297Z,5.37
2022-12-08T14:56:20.611Z,4.60
2022-12-08T14:58:51.238Z,5.80
2022-12-08T15:01:23.588Z,4.70
2022-12-08T15:03:51.865Z,4.90
2022-12-08T15:06:21.480Z,5.53
2022-12-08T15:08:54.444Z,5.37
2022-12-08T15:11:21.504Z,6.30
2022-12-08T15:13:51.508Z,5.30
2022-12-08T15:16:32.116Z,5.37
2022-12-08T15:19:20.189Z,5.63
2022-12-08T15:21:47.710Z,6.07
2022-12-08T15:24:15.692Z,5.17
2022-12-08T15:26:48.635Z,5.17
2022-12-08T15:29:27.976Z,5.37
2022-12-08T15:31:58.137Z,5.17
2022-12-08T15:34:25.433Z,7.17
2022-12-08T15:36:54.555Z,5.40
2022-12-08T15:39:25.944Z,7.00
2022-12-08T15:41:54.275Z,6.10
2022-12-08T15:44:21.352Z,6.87
2022-12-08T15:46:50.252Z,5.77
2022-12-08T15:49:22.504Z,6.33
2022-12-08T15:51:51.072Z,5.87
2022-12-08T15:54:18.710Z,6.40
2022-12-08T15:57:17.852Z,5.47
2022-12-08T15:59:36.575Z,6.63
2022-12-08T16:02:03.830Z,6.20
2022-12-08T16:05:25.126Z,6.60
2022-12-08T16:07:27.066Z,6.63
2022-12-08T16:09:57.345Z,6.03
2022-12-08T16:13:48.295Z,6.30
2022-12-08T16:15:53.016Z,6.73
2022-12-08T16:18:32.925Z,6.20
2022-12-08T16:21:17.896Z,6.93
2022-12-08T16:23:47.382Z,5.70
2022-12-08T16:26:35.418Z,6.20
2022-12-08T16:29:04.870Z,5.30
2022-12-08T16:31:34.081Z,5.87
2022-12-08T16:34:01.393Z,6.30
2022-12-08T16:36:28.448Z,5.63
2022-12-08T16:38:55.768Z,5.37
2022-12-08T16:41:41.431Z,6.10
2022-12-08T16:44:08.573Z,5.90
2022-12-08T16:46:37.026Z,9.30
2022-12-08T16:49:07.830Z,24.97
2022-12-08T16:51:34.856Z,20.67
2022-12-08T16:54:01.813Z,12.10
2022-12-08T16:56:33.251Z,14.87
2022-12-08T16:59:01.973Z,10.90
2022-12-08T17:01:29.488Z,11.00
2022-12-08T17:04:29.292Z,10.23
2022-12-08T17:06:43.779Z,9.77
2022-12-08T17:09:11.006Z,8.67
2022-12-08T17:11:43.034Z,9.10
2022-12-08T17:14:12.703Z,8.17
2022-12-08T17:16:40.529Z,9.13
2022-12-08T17:19:07.905Z,8.67
2022-12-08T17:21:35.090Z,7.50
2022-12-08T17:24:02.134Z,8.43
2022-12-08T17:26:29.188Z,7.87
2022-12-08T17:29:00.888Z,7.80
2022-12-08T17:31:31.061Z,7.77
2022-12-08T17:34:12.881Z,9.97
2022-12-08T17:36:43.210Z,17.63
2022-12-08T17:39:17.824Z,14.83
2022-12-08T17:41:45.659Z,12.77
2022-12-08T17:44:14.639Z,11.87
2022-12-08T17:46:47.629Z,10.90
2022-12-08T17:49:21.734Z,10.60
2022-12-08T17:52:04.538Z,10.33
2022-12-08T17:54:31.704Z,9.70
2022-12-08T17:56:59.286Z,10.20
2022-12-08T17:59:27.890Z,10.63
2022-12-08T18:01:58.748Z,9.40
2022-12-08T18:04:26.862Z,9.07
2022-12-08T18:06:53.964Z,10.30
2022-12-08T18:09:21.366Z,8.90
2022-12-08T18:11:48.537Z,7.73
2022-12-08T18:14:16.403Z,8.23
2022-12-08T18:16:45.654Z,8.43
2022-12-08T18:19:14.419Z,8.30
2022-12-08T18:21:42.453Z,9.43
2022-12-08T18:24:15.568Z,9.43
2022-12-08T18:26:42.640Z,8.50
2022-12-08T18:29:09.798Z,8.20
2022-12-08T18:31:36.871Z,8.17
2022-12-08T18:34:04.252Z,7.70
2022-12-08T18:36:31.273Z,8.40
2022-12-08T18:38:58.345Z,8.80
2022-12-08T18:41:26.286Z,7.40
2022-12-08T18:43:55.391Z,8.30
2022-12-08T18:46:22.805Z,6.67
2022-12-08T18:48:51.096Z,7.60
2022-12-08T18:51:21.802Z,8.33
2022-12-08T18:53:49.308Z,6.97
2022-12-08T18:56:26.090Z,9.13
2022-12-08T18:58:57.285Z,7.67
2022-12-08T19:01:27.544Z,8.83
2022-12-08T19:04:20.035Z,8.30
2022-12-08T19:06:44.381Z,7.07
2022-12-08T19:09:12.702Z,9.40
2022-12-08T19:11:40.480Z,9.13
2022-12-08T19:14:07.809Z,7.57
2022-12-08T19:16:35.327Z,9.67
2022-12-08T19:19:03.223Z,10.03
2022-12-08T19:21:30.764Z,8.73
2022-12-08T19:23:58.644Z,9.70
2022-12-08T19:26:27.718Z,10.50
2022-12-08T19:28:54.870Z,10.80
2022-12-08T19:31:22.316Z,10.20
2022-12-08T19:33:49.639Z,10.70
2022-12-08T19:36:18.878Z,10.43
2022-12-08T19:39:04.529Z,10.00
2022-12-08T19:41:50.759Z,10.73
2022-12-08T19:44:47.459Z,10.70
2022-12-08T19:47:15.071Z,10.60
2022-12-08T19:49:42.279Z,10.63
2022-12-08T19:52:09.886Z,11.73
2022-12-08T19:54:37.136Z,10.03
2022-12-08T19:57:04.289Z,12.97
2022-12-08T19:59:31.404Z,9.50
2022-12-08T20:01:59.019Z,11.70
2022-12-08T20:04:27.565Z,10.63
2022-12-08T20:06:56.052Z,11.30
2022-12-08T20:09:23.945Z,10.90
2022-12-08T20:11:51.233Z,10.07
2022-12-08T20:14:18.640Z,10.30
2022-12-08T20:16:45.687Z,11.30
2022-12-08T20:19:12.873Z,10.30
2022-12-08T20:21:40.431Z,10.03
2022-12-08T20:24:14.014Z,12.40
2022-12-08T20:26:41.047Z,10.30
2022-12-08T20:29:08.293Z,10.27
2022-12-08T20:31:35.446Z,10.80
2022-12-08T20:34:02.655Z,10.83
2022-12-08T20:36:30.049Z,10.80
2022-12-08T20:38:57.551Z,9.90
2022-12-08T20:41:24.825Z,11.20
2022-12-08T20:43:52.533Z,10.47
2022-12-08T20:46:21.058Z,10.90
2022-12-08T20:48:49.148Z,9.50
2022-12-08T20:51:19.421Z,10.60
2022-12-08T20:53:47.536Z,9.03
2022-12-08T20:56:19.740Z,9.20
2022-12-08T20:58:46.817Z,8.83
2022-12-08T21:01:17.119Z,9.63
2022-12-08T21:03:45.848Z,10.77
2022-12-08T21:06:13.619Z,8.87
2022-12-08T21:08:41.881Z,10.17
2022-12-08T21:11:10.041Z,11.67
2022-12-08T21:13:38.262Z,9.70
2022-12-08T21:16:06.093Z,10.77
2022-12-08T21:18:38.917Z,10.03
2022-12-08T21:21:09.997Z,10.20
2022-12-08T21:23:37.488Z,11.00
2022-12-08T21:26:14.663Z,9.50
2022-12-08T21:28:42.009Z,9.23
2022-12-08T21:31:10.773Z,10.80
2022-12-08T21:33:38.416Z,10.23
2022-12-08T21:36:11.784Z,10.60
2022-12-08T21:38:39.768Z,12.77
2022-12-08T21:41:10.374Z,10.03
2022-12-08T21:43:37.757Z,10.40
2022-12-08T21:46:05.385Z,10.60
2022-12-08T21:48:32.975Z,10.63
2022-12-08T21:51:05.005Z,12.77
2022-12-08T21:53:32.378Z,10.67
2022-12-08T21:55:59.497Z,10.57
2022-12-08T21:58:26.597Z,8.80
2022-12-08T22:00:53.991Z,10.30
2022-12-08T22:03:21.291Z,9.73
2022-12-08T22:05:48.453Z,9.90
2022-12-08T22:08:15.569Z,9.00
2022-12-08T22:10:48.581Z,12.20
2022-12-08T22:13:15.809Z,12.03
2022-12-08T22:15:42.982Z,8.97
2022-12-08T22:18:11.481Z,11.50
2022-12-08T22:20:43.915Z,11.60
2022-12-08T22:23:11.551Z,11.60
2022-12-08T22:25:38.500Z,12.17
2022-12-08T22:28:05.924Z,13.83
2022-12-08T22:30:38.688Z,11.90
2022-12-08T22:33:06.333Z,14.80
2022-12-08T22:35:33.345Z,14.13
2022-12-08T22:38:00.553Z,13.70
2022-12-08T22:40:27.589Z,16.13
2022-12-08T22:42:54.776Z,14.00
2022-12-08T22:45:21.888Z,14.53
2022-12-08T22:47:49.673Z,15.47
2022-12-08T22:50:16.765Z,15.60
2022-12-08T22:52:43.774Z,15.43
2022-12-08T22:55:10.887Z,16.03
2022-12-08T22:57:37.944Z,13.97
2022-12-08T23:00:07.274Z,16.60
2022-12-08T23:02:34.532Z,16.30
2022-12-08T23:05:01.763Z,14.40
2022-12-08T23:07:29.166Z,14.73
2022-12-08T23:09:56.165Z,15.33
2022-12-08T23:12:23.579Z,15.40
2022-12-08T23:14:50.624Z,15.30
2022-12-08T23:17:17.909Z,17.90
2022-12-08T23:19:44.992Z,14.60
2022-12-08T23:22:11.986Z,16.70
2022-12-08T23:24:39.118Z,16.70
2022-12-08T23:27:06.146Z,14.77
2022-12-08T23:29:33.480Z,16.33
2022-12-08T23:32:00.616Z,16.43
2022-12-08T23:34:27.741Z,15.30
2022-12-08T23:36:54.776Z,15.13
2022-12-08T23:39:24.846Z,15.17
2022-12-08T23:41:52.245Z,17.30
2022-12-08T23:44:19.311Z,16.97
2022-12-08T23:46:46.639Z,17.53
2022-12-08T23:49:13.813Z,16.03
2022-12-08T23:51:40.948Z,14.87
2022-12-08T23:54:08.092Z,16.60
2022-12-08T23:56:35.153Z,15.47
2022-12-08T23:59:02.380Z,15.63
